Time;durP1;ratioP1;P1;durP2;ratioP2;P2;SDS_P1;SDS_P2;PMS_P1;PMS_P2;Temp;Humidity;BMP_temperature;BMP_pressure;BME280_temperature;BME280_humidity;BME280_pressure;Samples;Min_cycle;Max_cycle;Signal;HPM_P1;HPM_P2
2023/04/13 00:01:00;;;;;;;0.93;0.93;;;6.60;99.90;;;;;;5017276;28;20206;-71
2023/04/13 00:03:26;;;;;;;0.40;0.40;;;6.60;99.90;;;;;;5034782;28;20297;-72
2023/04/13 00:05:52;;;;;;;0.40;0.40;;;6.50;99.90;;;;;;5035272;28;20175;-72
2023/04/13 00:08:21;;;;;;;0.40;0.40;;;6.50;99.90;;;;;;5034732;28;20197;-70
2023/04/13 00:10:47;;;;;;;0.50;0.50;;;6.30;99.90;;;;;;5033537;28;20180;-71
2023/04/13 00:13:14;;;;;;;1.00;1.00;;;6.30;99.90;;;;;;5033246;28;20180;-72
2023/04/13 00:15:41;;;;;;;0.40;0.40;;;6.20;99.90;;;;;;5033986;28;20545;-72
2023/04/13 00:18:07;;;;;;;0.38;0.38;;;6.30;99.90;;;;;;5033863;28;20217;-71
2023/04/13 00:20:33;;;;;;;0.40;0.40;;;6.30;99.90;;;;;;5015173;28;20214;-71
2023/04/13 00:22:59;;;;;;;0.50;0.50;;;6.40;99.90;;;;;;5033765;28;20398;-71
2023/04/13 00:25:25;;;;;;;0.43;0.43;;;6.30;99.90;;;;;;5035099;28;20505;-72
2023/04/13 00:27:53;;;;;;;0.40;0.40;;;6.40;99.90;;;;;;5035084;28;20172;-70
2023/04/13 00:30:20;;;;;;;0.50;0.50;;;6.40;99.90;;;;;;5016874;28;20171;-72
2023/04/13 00:32:46;;;;;;;0.32;0.32;;;6.40;99.90;;;;;;5034274;28;20222;-71
2023/04/13 00:35:17;;;;;;;0.50;0.50;;;6.40;99.90;;;;;;5034745;28;20179;-72
2023/04/13 00:37:43;;;;;;;0.60;0.60;;;6.40;99.90;;;;;;5034250;28;20159;-71
2023/04/13 00:40:10;;;;;;;0.40;0.40;;;6.30;99.80;;;;;;5034635;28;20187;-72
2023/04/13 00:42:36;;;;;;;0.60;0.50;;;6.30;99.90;;;;;;5016447;28;20237;-71
2023/04/13 00:45:01;;;;;;;0.40;0.40;;;6.30;99.50;;;;;;5034388;28;20167;-71
2023/04/13 00:47:31;;;;;;;0.40;0.40;;;6.30;99.50;;;;;;5034440;28;20163;-71
2023/04/13 00:49:59;;;;;;;0.40;0.40;;;6.30;99.40;;;;;;5034459;28;20187;-72
2023/04/13 00:52:25;;;;;;;0.40;0.40;;;6.00;99.30;;;;;;5034583;28;20175;-72
2023/04/13 00:54:55;;;;;;;0.60;0.60;;;5.90;99.90;;;;;;5033805;28;20178;-72
2023/04/13 00:57:21;;;;;;;0.40;0.40;;;5.90;99.90;;;;;;5033910;28;20413;-70
2023/04/13 00:59:48;;;;;;;0.35;0.35;;;6.10;99.90;;;;;;5034047;28;20555;-71
2023/04/13 01:02:21;;;;;;;0.40;0.40;;;6.10;99.70;;;;;;5034280;28;20166;-72
2023/04/13 01:04:48;;;;;;;0.30;0.30;;;6.00;99.80;;;;;;5034211;28;20183;-72
2023/04/13 01:07:46;;;;;;;0.30;0.30;;;6.00;99.90;;;;;;5034459;28;20540;-72
2023/04/13 01:10:21;;;;;;;1.00;0.95;;;6.00;99.90;;;;;;5034231;28;20167;-71
2023/04/13 01:13:05;;;;;;;0.60;0.60;;;6.10;99.90;;;;;;5016197;28;20602;-71
2023/04/13 01:15:36;;;;;;;0.35;0.35;;;6.10;99.90;;;;;;5015967;28;20580;-72
2023/04/13 01:18:06;;;;;;;0.75;0.75;;;6.00;99.90;;;;;;5033896;28;20187;-71
2023/04/13 01:20:32;;;;;;;0.63;0.63;;;6.00;99.90;;;;;;5015759;28;20576;-71
2023/04/13 01:23:03;;;;;;;0.63;0.63;;;6.10;99.90;;;;;;5033437;28;20182;-72
2023/04/13 01:25:46;;;;;;;0.43;0.43;;;6.10;99.70;;;;;;5033914;28;20167;-72
2023/04/13 01:28:14;;;;;;;0.40;0.40;;;6.00;99.50;;;;;;5034148;28;20204;-71
2023/04/13 01:30:41;;;;;;;0.43;0.43;;;5.90;99.00;;;;;;5033659;28;20171;-72
2023/04/13 01:33:09;;;;;;;0.40;0.40;;;5.90;99.40;;;;;;5033520;28;20179;-72
2023/04/13 01:35:36;;;;;;;0.30;0.30;;;5.90;99.60;;;;;;5033404;28;20547;-72
2023/04/13 01:38:03;;;;;;;0.55;0.55;;;6.00;99.60;;;;;;5033897;28;20195;-72
2023/04/13 01:40:30;;;;;;;0.40;0.40;;;6.00;99.40;;;;;;5033297;28;20198;-70
2023/04/13 01:42:56;;;;;;;0.40;0.40;;;6.00;99.20;;;;;;5033374;28;20180;-71
2023/04/13 01:45:22;;;;;;;0.73;0.73;;;5.60;99.20;;;;;;5033311;28;20179;-72
2023/04/13 01:48:07;;;;;;;0.40;0.40;;;5.50;99.70;;;;;;5033452;28;20169;-72
2023/04/13 01:50:37;;;;;;;0.50;0.50;;;5.70;99.70;;;;;;5016101;28;20167;-71
2023/04/13 01:53:10;;;;;;;0.40;0.40;;;5.70;99.20;;;;;;5033427;28;20261;-72
2023/04/13 01:55:38;;;;;;;0.57;0.57;;;5.80;99.00;;;;;;5033735;28;20167;-73
2023/04/13 01:58:05;;;;;;;0.40;0.40;;;5.80;99.10;;;;;;5033340;28;20197;-72
2023/04/13 02:00:35;;;;;;;0.40;0.40;;;5.90;99.20;;;;;;5033597;28;20285;-72
2023/04/13 02:03:08;;;;;;;0.60;0.50;;;6.00;98.90;;;;;;5033468;28;20152;-71
2023/04/13 02:05:38;;;;;;;1.02;1.02;;;6.10;98.90;;;;;;5033796;28;20240;-72
2023/04/13 02:08:06;;;;;;;0.40;0.40;;;6.00;98.50;;;;;;5033079;28;20229;-71
2023/04/13 02:10:33;;;;;;;0.40;0.40;;;5.90;98.40;;;;;;5033475;28;20525;-71
2023/04/13 02:13:06;;;;;;;0.40;0.40;;;5.90;98.40;;;;;;5033201;28;20210;-71
2023/04/13 02:15:36;;;;;;;0.40;0.40;;;6.00;98.80;;;;;;5033565;28;20171;-71
2023/04/13 02:18:05;;;;;;;0.40;0.40;;;6.00;98.80;;;;;;5033603;28;20188;-70
2023/04/13 02:20:41;;;;;;;9.18;0.88;;;5.90;98.10;;;;;;5032809;28;20606;-70
2023/04/13 02:23:09;;;;;;;0.40;0.40;;;5.70;98.90;;;;;;5033051;28;20507;-70
2023/04/13 02:25:35;;;;;;;0.95;0.95;;;5.80;98.80;;;;;;5033241;28;20170;-72
2023/04/13 02:28:01;;;;;;;0.80;0.80;;;5.70;98.20;;;;;;5033183;28;20183;-71
2023/04/13 02:30:27;;;;;;;0.57;0.57;;;5.80;98.40;;;;;;5033660;28;20173;-72
2023/04/13 02:32:53;;;;;;;0.40;0.40;;;5.70;98.50;;;;;;5033325;28;20912;-71
2023/04/13 02:35:19;;;;;;;0.40;0.40;;;5.60;98.60;;;;;;5032943;28;20429;-72
2023/04/13 02:37:45;;;;;;;0.40;0.40;;;5.50;98.80;;;;;;5032824;28;20171;-71
2023/04/13 02:40:11;;;;;;;3.55;1.00;;;5.60;98.90;;;;;;5032840;28;20279;-72
2023/04/13 02:42:38;;;;;;;0.35;0.35;;;5.60;98.80;;;;;;5032983;28;20258;-72
2023/04/13 02:45:06;;;;;;;0.40;0.40;;;5.70;98.70;;;;;;5037110;28;20187;-70
2023/04/13 02:47:32;;;;;;;0.75;0.75;;;5.70;98.90;;;;;;5036603;28;20202;-72
2023/04/13 02:49:59;;;;;;;0.55;0.55;;;5.70;98.50;;;;;;5036577;28;20516;-72
2023/04/13 02:52:25;;;;;;;0.30;0.30;;;5.70;98.60;;;;;;5036566;28;20261;-71
2023/04/13 02:54:53;;;;;;;0.40;0.40;;;5.70;98.50;;;;;;5036479;28;20634;-70
2023/04/13 02:57:21;;;;;;;0.40;0.40;;;5.80;98.40;;;;;;5036259;28;20241;-71
2023/04/13 02:59:47;;;;;;;0.40;0.40;;;5.80;98.40;;;;;;5036179;28;20559;-72
2023/04/13 03:02:13;;;;;;;0.40;0.40;;;5.70;98.40;;;;;;5036119;28;20174;-71
2023/04/13 03:04:38;;;;;;;0.40;0.40;;;5.70;98.50;;;;;;5036141;28;20612;-72
2023/04/13 03:07:08;;;;;;;0.40;0.40;;;5.80;98.70;;;;;;5036531;28;20179;-71
2023/04/13 03:09:36;;;;;;;0.40;0.40;;;5.80;98.30;;;;;;5036378;28;20214;-71
2023/04/13 03:12:02;;;;;;;0.40;0.40;;;5.60;98.50;;;;;;5036551;28;20179;-71
2023/04/13 03:14:28;;;;;;;0.40;0.40;;;5.60;98.50;;;;;;5035774;28;20183;-70
2023/04/13 03:16:57;;;;;;;0.40;0.40;;;5.60;98.30;;;;;;5035349;28;20266;-70
2023/04/13 03:19:22;;;;;;;0.35;0.35;;;5.60;98.40;;;;;;5033869;28;20697;-71
2023/04/13 03:21:49;;;;;;;0.40;0.40;;;5.70;98.20;;;;;;5034804;28;20178;-70
2023/04/13 03:24:14;;;;;;;0.60;0.60;;;5.60;98.00;;;;;;5035748;28;20497;-71
2023/04/13 03:26:40;;;;;;;0.40;0.40;;;5.60;98.20;;;;;;5034615;28;20651;-71
2023/04/13 03:29:06;;;;;;;0.43;0.43;;;5.60;98.20;;;;;;5035741;28;20438;-71
2023/04/13 03:31:32;;;;;;;0.65;0.65;;;5.60;98.40;;;;;;5035585;28;20180;-71
2023/04/13 03:33:58;;;;;;;0.30;0.30;;;5.50;97.80;;;;;;5035512;28;20181;-71
2023/04/13 03:36:26;;;;;;;0.40;0.40;;;5.40;98.00;;;;;;5035442;28;20406;-72
2023/04/13 03:38:52;;;;;;;0.90;0.90;;;5.40;98.10;;;;;;5035369;28;20291;-72
2023/04/13 03:41:18;;;;;;;0.30;0.30;;;5.40;98.20;;;;;;5035441;28;20264;-71
2023/04/13 03:43:43;;;;;;;0.30;0.30;;;5.50;98.50;;;;;;5017515;28;20413;-70
2023/04/13 03:46:09;;;;;;;0.40;0.40;;;5.50;98.10;;;;;;5035499;28;20623;-71
2023/04/13 03:48:35;;;;;;;0.40;0.40;;;5.50;98.10;;;;;;5035371;28;20827;-70
2023/04/13 03:51:01;;;;;;;0.60;0.60;;;5.40;98.10;;;;;;5035241;28;20765;-71
2023/04/13 03:53:27;;;;;;;0.40;0.40;;;5.50;98.40;;;;;;5035258;28;20182;-70
2023/04/13 03:55:53;;;;;;;0.40;0.40;;;5.50;98.50;;;;;;5034110;28;20534;-72
2023/04/13 03:58:18;;;;;;;0.40;0.40;;;5.40;98.40;;;;;;5035137;28;20199;-71
2023/04/13 04:00:44;;;;;;;0.40;0.40;;;5.40;98.40;;;;;;5034930;28;20210;-71
2023/04/13 04:03:10;;;;;;;0.70;0.70;;;5.30;98.10;;;;;;5034767;28;20171;-70
2023/04/13 04:05:39;;;;;;;0.50;0.50;;;5.40;98.30;;;;;;5035073;28;20167;-71
2023/04/13 04:08:05;;;;;;;0.40;0.40;;;5.30;98.20;;;;;;5035073;28;20201;-70
2023/04/13 04:10:30;;;;;;;0.40;0.40;;;5.40;98.50;;;;;;5034894;28;20238;-71
2023/04/13 04:12:56;;;;;;;0.40;0.40;;;5.50;98.30;;;;;;5034763;28;20761;-70
2023/04/13 04:15:22;;;;;;;0.30;0.30;;;5.50;98.20;;;;;;5034809;28;20178;-71
2023/04/13 04:17:47;;;;;;;0.40;0.40;;;5.40;98.30;;;;;;5034620;28;20174;-71
2023/04/13 04:20:13;;;;;;;0.40;0.40;;;5.30;98.40;;;;;;5034561;28;20468;-72
2023/04/13 04:22:40;;;;;;;0.37;0.37;;;5.10;98.20;;;;;;5034726;28;20163;-70
2023/04/13 04:25:07;;;;;;;0.50;0.50;;;5.10;98.40;;;;;;5034777;28;20813;-71
2023/04/13 04:27:39;;;;;;;0.40;0.40;;;5.10;98.50;;;;;;5034916;28;20178;-70
2023/04/13 04:30:09;;;;;;;0.40;0.40;;;5.20;98.40;;;;;;5034767;28;20151;-70
2023/04/13 04:32:35;;;;;;;0.50;0.50;;;5.30;98.30;;;;;;5034503;28;20237;-71
2023/04/13 04:35:02;;;;;;;0.40;0.40;;;5.30;98.40;;;;;;5034511;28;20178;-72
2023/04/13 04:37:36;;;;;;;0.40;0.40;;;5.40;98.60;;;;;;5034475;28;20413;-72
2023/04/13 04:40:08;;;;;;;0.40;0.40;;;5.30;98.30;;;;;;5034115;28;20301;-72
2023/04/13 04:42:36;;;;;;;7.25;0.80;;;5.30;98.50;;;;;;5034178;28;20168;-72
2023/04/13 04:45:05;;;;;;;0.50;0.50;;;5.40;98.80;;;;;;5034237;28;20167;-71
2023/04/13 04:47:31;;;;;;;0.40;0.40;;;5.30;98.50;;;;;;5034209;28;20167;-72
2023/04/13 04:49:57;;;;;;;0.40;0.40;;;5.20;98.30;;;;;;5034049;28;20209;-71
2023/04/13 04:52:26;;;;;;;0.40;0.40;;;5.20;98.60;;;;;;5034166;28;20412;-71
2023/04/13 04:54:52;;;;;;;0.40;0.40;;;5.10;98.60;;;;;;5033862;28;20175;-71
2023/04/13 04:57:18;;;;;;;7.45;1.90;;;5.20;98.80;;;;;;5016301;28;20182;-72
2023/04/13 04:59:44;;;;;;;1.75;1.67;;;5.30;98.70;;;;;;5033721;28;20288;-72
2023/04/13 05:02:10;;;;;;;0.40;0.40;;;5.30;99.00;;;;;;5034006;28;20218;-71
2023/04/13 05:04:36;;;;;;;0.60;0.60;;;5.40;98.80;;;;;;5033898;28;20163;-72
2023/04/13 05:07:01;;;;;;;0.40;0.40;;;5.30;98.60;;;;;;5033574;28;20229;-72
2023/04/13 05:09:27;;;;;;;0.83;0.83;;;5.30;98.50;;;;;;5033908;28;20207;-71
2023/04/13 05:11:53;;;;;;;0.40;0.40;;;5.30;98.40;;;;;;5033960;28;20588;-72
2023/04/13 05:14:19;;;;;;;0.37;0.37;;;5.40;98.30;;;;;;5033790;28;20210;-70
2023/04/13 05:16:45;;;;;;;0.53;0.53;;;5.40;98.40;;;;;;5016062;28;20171;-71
2023/04/13 05:19:11;;;;;;;1.47;1.47;;;5.50;98.40;;;;;;5033539;28;20457;-71
2023/04/13 05:21:37;;;;;;;2.80;0.77;;;5.60;98.40;;;;;;5033425;28;20546;-70
2023/04/13 05:24:03;;;;;;;0.40;0.40;;;5.60;98.40;;;;;;5033376;28;20182;-70
2023/04/13 05:26:29;;;;;;;6.82;1.88;;;5.60;98.20;;;;;;5033693;28;20163;-72
2023/04/13 05:28:55;;;;;;;1.70;1.50;;;5.60;98.10;;;;;;5033395;28;20264;-70
2023/04/13 05:31:23;;;;;;;0.40;0.40;;;5.50;98.00;;;;;;5033554;28;20622;-71
2023/04/13 05:33:48;;;;;;;0.40;0.40;;;5.40;98.00;;;;;;5033275;28;20163;-71
2023/04/13 05:36:14;;;;;;;0.30;0.30;;;5.50;98.20;;;;;;5033162;28;20182;-72
2023/04/13 05:38:40;;;;;;;0.40;0.40;;;5.60;98.50;;;;;;5033329;28;20321;-71
2023/04/13 05:41:06;;;;;;;0.82;0.82;;;5.70;98.20;;;;;;5033529;28;20449;-71
2023/04/13 05:43:33;;;;;;;0.50;0.47;;;5.90;98.40;;;;;;5033371;28;20183;-71
2023/04/13 05:45:59;;;;;;;0.40;0.40;;;5.90;97.80;;;;;;5033824;28;20179;-71
2023/04/13 05:48:25;;;;;;;0.70;0.70;;;6.10;97.80;;;;;;5033211;28;20592;-72
2023/04/13 05:50:58;;;;;;;0.40;0.40;;;6.00;97.60;;;;;;5033186;28;20472;-71
2023/04/13 05:53:24;;;;;;;0.40;0.40;;;6.00;97.40;;;;;;5033324;28;20183;-72
2023/04/13 05:55:50;;;;;;;0.63;0.63;;;5.90;97.10;;;;;;5033484;28;20240;-73
2023/04/13 05:58:17;;;;;;;0.30;0.30;;;5.80;96.80;;;;;;5033383;28;20194;-70
2023/04/13 06:00:43;;;;;;;0.63;0.55;;;5.70;97.00;;;;;;5033718;28;20190;-71
2023/04/13 06:03:09;;;;;;;0.40;0.40;;;5.70;97.50;;;;;;5033243;28;20171;-72
2023/04/13 06:05:36;;;;;;;0.50;0.50;;;5.70;97.50;;;;;;5033245;28;20175;-73
2023/04/13 06:08:02;;;;;;;0.40;0.40;;;5.70;97.50;;;;;;5033453;28;20179;-72
2023/04/13 06:10:28;;;;;;;0.40;0.40;;;5.80;97.60;;;;;;5032604;28;20179;-70
2023/04/13 06:12:54;;;;;;;0.77;0.50;;;5.80;97.30;;;;;;5031878;28;20186;-72
2023/04/13 06:15:20;;;;;;;0.45;0.45;;;5.80;97.40;;;;;;5032215;28;20303;-72
2023/04/13 06:17:49;;;;;;;0.40;0.40;;;5.80;97.20;;;;;;5033580;28;20178;-72
2023/04/13 06:20:15;;;;;;;0.60;0.60;;;6.00;97.30;;;;;;5036877;28;20203;-72
2023/04/13 06:22:40;;;;;;;0.30;0.30;;;6.00;97.20;;;;;;5036762;28;20175;-71
2023/04/13 06:25:07;;;;;;;0.40;0.40;;;6.10;97.00;;;;;;5037158;28;20768;-73
2023/04/13 06:27:33;;;;;;;0.82;0.57;;;6.00;96.70;;;;;;5037280;28;20177;-70
2023/04/13 06:30:00;;;;;;;0.40;0.40;;;6.10;96.70;;;;;;5037309;28;20195;-70
2023/04/13 06:32:25;;;;;;;0.70;0.70;;;6.00;96.60;;;;;;5036914;28;20221;-70
2023/04/13 06:34:51;;;;;;;0.30;0.30;;;5.80;96.50;;;;;;5036617;28;20175;-71
2023/04/13 06:37:18;;;;;;;0.40;0.40;;;5.80;96.70;;;;;;5037031;28;20610;-70
2023/04/13 06:39:43;;;;;;;0.40;0.40;;;5.90;96.70;;;;;;5036824;28;20542;-69
2023/04/13 06:42:09;;;;;;;0.37;0.37;;;6.00;96.60;;;;;;5037047;28;20254;-69
2023/04/13 06:44:35;;;;;;;0.37;0.37;;;6.00;96.50;;;;;;5037053;28;20611;-69
2023/04/13 06:47:00;;;;;;;0.30;0.30;;;6.10;96.20;;;;;;5036925;28;20190;-73
2023/04/13 06:49:26;;;;;;;1.33;1.23;;;5.90;96.50;;;;;;5036251;28;20479;-72
2023/04/13 06:51:52;;;;;;;0.90;0.90;;;6.00;96.90;;;;;;5036615;28;20198;-73
2023/04/13 06:54:18;;;;;;;7.00;0.87;;;6.10;96.60;;;;;;5036303;28;20218;-71
2023/04/13 06:56:44;;;;;;;0.40;0.40;;;6.20;96.20;;;;;;5036829;28;20633;-71
2023/04/13 06:59:10;;;;;;;0.50;0.50;;;6.30;95.90;;;;;;5036666;28;20244;-72
2023/04/13 07:01:35;;;;;;;0.40;0.40;;;6.40;95.80;;;;;;5036210;28;20416;-71
2023/04/13 07:04:01;;;;;;;0.40;0.40;;;6.50;96.00;;;;;;5018267;28;20179;-72
2023/04/13 07:06:27;;;;;;;6.30;1.30;;;6.60;95.70;;;;;;5036326;28;20167;-72
2023/04/13 07:08:53;;;;;;;2.50;0.90;;;6.70;94.90;;;;;;5036136;28;20478;-74
2023/04/13 07:11:19;;;;;;;0.40;0.40;;;6.80;94.50;;;;;;5036538;28;20172;-70
2023/04/13 07:13:45;;;;;;;0.40;0.40;;;6.80;93.90;;;;;;5036028;28;20247;-71
2023/04/13 07:16:11;;;;;;;0.40;0.40;;;6.70;94.00;;;;;;5035987;28;20404;-71
2023/04/13 07:18:37;;;;;;;0.60;0.60;;;6.40;94.70;;;;;;5035774;28;20191;-71
2023/04/13 07:21:03;;;;;;;0.40;0.40;;;6.40;95.20;;;;;;5035834;28;20456;-72
2023/04/13 07:23:29;;;;;;;0.40;0.40;;;6.30;95.20;;;;;;5035572;28;20169;-71
2023/04/13 07:25:55;;;;;;;0.40;0.40;;;6.10;95.40;;;;;;5036257;28;20256;-71
2023/04/13 07:28:20;;;;;;;0.50;0.50;;;6.00;95.50;;;;;;5035923;28;20505;-72
2023/04/13 07:30:46;;;;;;;0.63;0.53;;;5.90;95.30;;;;;;5036501;28;20416;-73
2023/04/13 07:33:12;;;;;;;0.40;0.40;;;6.00;95.50;;;;;;5035485;28;20176;-74
2023/04/13 07:35:38;;;;;;;0.80;0.60;;;6.30;96.00;;;;;;5035788;28;20587;-74
2023/04/13 07:38:07;;;;;;;0.40;0.40;;;6.40;95.10;;;;;;5037056;28;20225;-72
2023/04/13 07:40:34;;;;;;;0.35;0.35;;;6.40;95.70;;;;;;5033946;28;20489;-70
2023/04/13 07:43:00;;;;;;;0.40;0.40;;;6.50;95.00;;;;;;5034200;28;20175;-72
2023/04/13 07:45:30;;;;;;;0.40;0.40;;;6.60;94.60;;;;;;5035566;28;20167;-72
2023/04/13 07:47:56;;;;;;;1.50;1.40;;;6.40;94.60;;;;;;5035401;28;20589;-69
2023/04/13 07:50:22;;;;;;;0.50;0.50;;;6.60;95.10;;;;;;5035562;28;20307;-71
2023/04/13 07:52:47;;;;;;;0.43;0.40;;;6.80;95.50;;;;;;5035422;28;20688;-75
2023/04/13 07:55:13;;;;;;;0.40;0.40;;;7.10;95.30;;;;;;5035728;28;20176;-72
2023/04/13 07:57:38;;;;;;;1.03;1.03;;;7.30;94.70;;;;;;5035336;28;20254;-71
2023/04/13 08:00:05;;;;;;;2.63;2.10;;;7.20;94.30;;;;;;5035219;28;20237;-75
2023/04/13 08:02:31;;;;;;;1.67;0.55;;;7.10;94.00;;;;;;5035339;28;20257;-75
2023/04/13 08:04:57;;;;;;;0.43;0.43;;;7.20;94.10;;;;;;5035108;28;20168;-74
2023/04/13 08:07:23;;;;;;;0.50;0.50;;;7.30;94.10;;;;;;5035316;28;20202;-75
2023/04/13 08:09:51;;;;;;;1.23;0.70;;;7.20;93.60;;;;;;5035084;28;20596;-77
2023/04/13 08:12:17;;;;;;;0.30;0.30;;;7.30;94.10;;;;;;5035526;28;20196;-75
2023/04/13 08:14:43;;;;;;;1.80;1.70;;;7.40;94.60;;;;;;5034659;28;20681;-72
2023/04/13 08:17:10;;;;;;;2.20;2.05;;;7.80;94.40;;;;;;5034876;28;20203;-75
2023/04/13 08:19:36;;;;;;;0.60;0.60;;;8.50;93.70;;;;;;5034276;28;20199;-74
2023/04/13 08:22:03;;;;;;;0.70;0.60;;;9.40;92.20;;;;;;5034649;28;20201;-71
2023/04/13 08:24:29;;;;;;;0.45;0.45;;;10.00;89.80;;;;;;5016537;28;20175;-73
2023/04/13 08:26:57;;;;;;;0.70;0.70;;;10.00;87.30;;;;;;5035156;28;20167;-76
2023/04/13 08:29:23;;;;;;;2.10;1.10;;;10.10;87.90;;;;;;5034592;28;20245;-72
2023/04/13 08:31:49;;;;;;;0.67;0.67;;;10.30;86.50;;;;;;5016903;28;20453;-75
2023/04/13 08:34:17;;;;;;;0.70;0.70;;;10.60;86.80;;;;;;5032658;28;20433;-76
2023/04/13 08:36:44;;;;;;;0.60;0.60;;;10.70;86.30;;;;;;5032503;28;20483;-74
2023/04/13 08:39:11;;;;;;;0.50;0.50;;;10.40;83.70;;;;;;5034317;28;20252;-77
2023/04/13 08:41:37;;;;;;;22.02;1.25;;;9.60;85.70;;;;;;5034310;28;20166;-73
2023/04/13 08:44:07;;;;;;;0.50;0.50;;;8.60;87.10;;;;;;5034119;28;20171;-74
2023/04/13 08:46:33;;;;;;;2.95;0.70;;;8.30;90.60;;;;;;5034526;28;20159;-73
2023/04/13 08:49:00;;;;;;;0.50;0.50;;;8.10;91.60;;;;;;5034515;28;20650;-73
2023/04/13 08:51:28;;;;;;;0.40;0.40;;;8.00;91.90;;;;;;5034640;28;20167;-75
2023/04/13 08:53:57;;;;;;;0.30;0.30;;;7.90;91.90;;;;;;5033903;28;20656;-73
2023/04/13 08:56:24;;;;;;;0.60;0.60;;;7.70;91.60;;;;;;5033987;28;20173;-75
2023/04/13 08:58:53;;;;;;;0.50;0.50;;;7.70;92.00;;;;;;5033893;28;20194;-76
2023/04/13 09:01:19;;;;;;;0.50;0.50;;;7.80;92.70;;;;;;5034321;28;20232;-76
2023/04/13 09:03:52;;;;;;;0.40;0.40;;;8.00;92.90;;;;;;5033761;28;20656;-73
2023/04/13 09:06:31;;;;;;;0.40;0.40;;;8.10;92.60;;;;;;5034151;28;20225;-73
2023/04/13 09:08:58;;;;;;;0.30;0.30;;;8.00;92.10;;;;;;5033787;28;20330;-73
2023/04/13 09:11:24;;;;;;;0.40;0.40;;;8.00;93.10;;;;;;5033627;28;20257;-73
2023/04/13 09:13:50;;;;;;;0.30;0.30;;;8.20;93.00;;;;;;5033852;28;20229;-76
2023/04/13 09:16:18;;;;;;;10.13;2.47;;;8.40;91.90;;;;;;5033789;28;20167;-75
2023/04/13 09:18:53;;;;;;;0.40;0.40;;;8.50;91.50;;;;;;5034060;28;20217;-74
2023/04/13 09:21:19;;;;;;;2.45;1.30;;;8.60;91.60;;;;;;5033396;28;20201;-72
2023/04/13 09:23:56;;;;;;;0.73;0.73;;;8.40;91.60;;;;;;5015588;28;20182;-75
2023/04/13 09:26:22;;;;;;;0.60;0.60;;;8.30;91.30;;;;;;5033659;28;20492;-73
2023/04/13 09:28:48;;;;;;;0.57;0.57;;;8.30;92.30;;;;;;5033353;28;20639;-74
2023/04/13 09:31:15;;;;;;;0.63;0.63;;;8.20;92.80;;;;;;5034049;28;20209;-73
2023/04/13 09:33:50;;;;;;;0.40;0.40;;;8.20;91.90;;;;;;5033631;28;20538;-74
2023/04/13 09:36:18;;;;;;;0.40;0.40;;;8.10;92.70;;;;;;5015872;28;20213;-76
2023/04/13 09:38:50;;;;;;;0.70;0.70;;;8.10;92.50;;;;;;5033611;28;20225;-75
2023/04/13 09:41:26;;;;;;;0.98;0.98;;;8.10;92.20;;;;;;5032778;28;20229;-72
2023/04/13 09:43:52;;;;;;;1.05;1.05;;;8.10;91.60;;;;;;5032071;28;20236;-75
2023/04/13 09:46:17;;;;;;;9.80;3.27;;;8.30;91.90;;;;;;5015325;28;20713;-74
2023/04/13 09:48:43;;;;;;;1.73;0.80;;;8.30;91.70;;;;;;5033130;28;20198;-74
2023/04/13 09:51:09;;;;;;;0.40;0.40;;;8.20;91.80;;;;;;5033473;28;20180;-75
2023/04/13 09:53:41;;;;;;;0.60;0.60;;;8.20;91.90;;;;;;5036438;28;20180;-75
2023/04/13 09:56:08;;;;;;;1.77;1.40;;;7.90;92.00;;;;;;5037435;28;20170;-72
2023/04/13 09:58:43;;;;;;;2.28;1.55;;;7.80;93.30;;;;;;5037231;28;20216;-76
2023/04/13 10:01:09;;;;;;;0.30;0.30;;;7.60;93.30;;;;;;5037506;28;20295;-76
2023/04/13 10:03:36;;;;;;;2.17;2.08;;;7.50;94.30;;;;;;5037271;28;20171;-77
2023/04/13 10:06:06;;;;;;;0.88;0.88;;;7.70;94.60;;;;;;5037296;28;20532;-74
2023/04/13 10:08:32;;;;;;;1.50;1.35;;;8.80;94.00;;;;;;5037318;28;20186;-76
2023/04/13 10:11:00;;;;;;;2.83;1.10;;;10.20;90.50;;;;;;5036931;28;20179;-74
2023/04/13 10:13:33;;;;;;;0.85;0.85;;;10.90;87.30;;;;;;5037016;28;20171;-75
2023/04/13 10:16:24;;;;;;;0.60;0.60;;;10.90;86.20;;;;;;5037222;28;20189;-72
2023/04/13 10:19:23;;;;;;;0.40;0.40;;;10.90;86.50;;;;;;5037228;28;20424;-76
2023/04/13 10:21:51;;;;;;;0.95;0.75;;;10.80;85.70;;;;;;5036804;28;20433;-75
2023/04/13 10:24:19;;;;;;;0.40;0.40;;;10.70;85.00;;;;;;5036708;28;20194;-75
2023/04/13 10:26:44;;;;;;;0.90;0.85;;;10.40;86.90;;;;;;5037136;28;20779;-74
2023/04/13 10:29:13;;;;;;;0.60;0.60;;;9.80;87.00;;;;;;5018905;28;20269;-76
2023/04/13 10:31:38;;;;;;;1.15;1.15;;;9.20;90.80;;;;;;5037274;28;20167;-72
2023/04/13 10:34:07;;;;;;;0.60;0.50;;;8.90;90.60;;;;;;5018978;28;20177;-71
2023/04/13 10:36:40;;;;;;;0.63;0.63;;;9.00;92.40;;;;;;5036757;28;20209;-72
2023/04/13 10:39:10;;;;;;;0.82;0.82;;;9.70;91.30;;;;;;5036906;28;20223;-74
2023/04/13 10:41:37;;;;;;;0.40;0.40;;;10.40;88.40;;;;;;5019191;28;20198;-76
2023/04/13 10:44:07;;;;;;;1.85;1.45;;;10.80;85.50;;;;;;5036454;28;20409;-74
2023/04/13 10:46:36;;;;;;;1.05;1.05;;;10.50;85.70;;;;;;5037186;28;20170;-75
2023/04/13 10:49:04;;;;;;;0.40;0.40;;;10.20;85.50;;;;;;5036528;28;20261;-74
2023/04/13 10:51:42;;;;;;;3.35;1.13;;;9.70;88.00;;;;;;5018282;28;20593;-71
2023/04/13 10:54:08;;;;;;;0.40;0.40;;;9.20;90.10;;;;;;5035062;28;20163;-74
2023/04/13 10:56:35;;;;;;;0.60;0.60;;;8.80;90.70;;;;;;5036295;28;20198;-71
2023/04/13 10:59:01;;;;;;;0.30;0.30;;;8.10;92.70;;;;;;5036015;28;20187;-74
2023/04/13 11:01:29;;;;;;;0.40;0.40;;;7.80;93.50;;;;;;5036278;28;20182;-71
2023/04/13 11:03:56;;;;;;;0.30;0.30;;;7.70;95.10;;;;;;5017654;28;20415;-74
2023/04/13 11:06:22;;;;;;;1.50;1.40;;;8.10;95.30;;;;;;5036159;28;20201;-72
2023/04/13 11:08:48;;;;;;;0.30;0.30;;;8.30;94.60;;;;;;5035941;28;20198;-73
2023/04/13 11:11:23;;;;;;;0.37;0.37;;;8.30;93.60;;;;;;5035992;28;20177;-73
2023/04/13 11:13:49;;;;;;;0.40;0.40;;;8.30;93.50;;;;;;5035902;28;20212;-74
2023/04/13 11:16:15;;;;;;;0.40;0.40;;;8.40;93.80;;;;;;5035979;28;20646;-73
2023/04/13 11:18:41;;;;;;;0.30;0.30;;;8.60;92.40;;;;;;5035459;28;20201;-72
2023/04/13 11:21:18;;;;;;;0.40;0.40;;;8.80;92.10;;;;;;5018124;28;20337;-71
2023/04/13 11:23:52;;;;;;;1.40;1.30;;;9.20;91.60;;;;;;5034217;28;20175;-72
2023/04/13 11:26:30;;;;;;;0.30;0.30;;;9.70;91.70;;;;;;5034859;28;20178;-74
2023/04/13 11:28:56;;;;;;;0.38;0.38;;;9.90;89.90;;;;;;5017824;28;20198;-75
2023/04/13 11:31:33;;;;;;;1.70;1.65;;;9.90;88.60;;;;;;5034504;28;20178;-73
2023/04/13 11:33:58;;;;;;;0.95;0.95;;;9.70;90.40;;;;;;5035469;28;20312;-72
2023/04/13 11:36:25;;;;;;;0.50;0.50;;;9.40;90.60;;;;;;5035711;28;20199;-70
2023/04/13 11:38:53;;;;;;;0.73;0.73;;;9.40;90.80;;;;;;5035400;28;20711;-74
2023/04/13 11:41:18;;;;;;;0.45;0.45;;;9.70;90.40;;;;;;5035639;28;20202;-74
2023/04/13 11:43:44;;;;;;;0.30;0.30;;;10.00;90.30;;;;;;5035495;28;20170;-71
2023/04/13 11:46:12;;;;;;;0.90;0.90;;;10.20;90.10;;;;;;5035486;28;20163;-73
2023/04/13 11:48:38;;;;;;;1.33;1.08;;;10.40;90.10;;;;;;5035392;28;20430;-71
2023/04/13 11:51:04;;;;;;;1.53;1.43;;;10.40;88.20;;;;;;5035250;28;20185;-74
2023/04/13 11:53:31;;;;;;;0.60;0.60;;;10.70;89.30;;;;;;5035372;28;20414;-74
2023/04/13 11:55:56;;;;;;;0.52;0.52;;;10.80;85.80;;;;;;5035152;28;20171;-72
2023/04/13 11:58:23;;;;;;;0.30;0.30;;;10.80;84.70;;;;;;5035153;28;20678;-73
2023/04/13 12:00:48;;;;;;;2.58;1.90;;;11.00;85.70;;;;;;5035026;28;20507;-71
2023/04/13 12:03:16;;;;;;;0.40;0.40;;;11.00;82.10;;;;;;5034977;28;20167;-73
2023/04/13 12:05:43;;;;;;;0.60;0.60;;;11.00;82.60;;;;;;5035198;28;20159;-72
2023/04/13 12:08:18;;;;;;;0.50;0.50;;;10.90;84.20;;;;;;5034901;28;20422;-73
2023/04/13 12:10:44;;;;;;;5.03;0.50;;;11.10;83.50;;;;;;5034952;28;20401;-73
2023/04/13 12:13:10;;;;;;;0.40;0.40;;;11.10;82.60;;;;;;5034676;28;20765;-72
2023/04/13 12:15:38;;;;;;;0.30;0.30;;;11.00;84.50;;;;;;5033995;28;20254;-76
2023/04/13 12:18:04;;;;;;;2.53;2.33;;;10.70;84.70;;;;;;5034957;28;20191;-74
2023/04/13 12:20:45;;;;;;;0.50;0.40;;;10.50;87.40;;;;;;5034516;28;20344;-73
2023/04/13 12:23:23;;;;;;;2.25;1.13;;;10.30;90.20;;;;;;5034439;28;20171;-73
2023/04/13 12:26:07;;;;;;;0.88;0.65;;;10.30;90.00;;;;;;5034791;28;20183;-72
2023/04/13 12:28:35;;;;;;;2.15;2.05;;;10.30;90.00;;;;;;5034622;28;20194;-74
2023/04/13 12:31:06;;;;;;;2.30;1.15;;;10.20;87.30;;;;;;5034479;28;20182;-72
2023/04/13 12:33:32;;;;;;;0.73;0.73;;;10.00;89.10;;;;;;5034339;28;20167;-73
2023/04/13 12:35:58;;;;;;;0.60;0.60;;;9.80;90.00;;;;;;5034523;28;20506;-73
2023/04/13 12:38:25;;;;;;;0.60;0.60;;;9.70;90.20;;;;;;5034469;28;20289;-74
2023/04/13 12:40:58;;;;;;;0.40;0.40;;;9.80;90.70;;;;;;5034313;28;20187;-72
2023/04/13 12:43:25;;;;;;;0.30;0.30;;;9.90;91.20;;;;;;5034335;28;20269;-74
2023/04/13 12:45:51;;;;;;;0.50;0.50;;;10.00;91.00;;;;;;5034493;28;20167;-75
2023/04/13 12:48:17;;;;;;;1.00;1.00;;;10.30;90.30;;;;;;5034254;28;20191;-74
2023/04/13 12:50:43;;;;;;;1.73;1.67;;;10.50;90.40;;;;;;5034236;28;20171;-73
2023/04/13 12:53:10;;;;;;;0.47;0.47;;;10.50;90.00;;;;;;5034225;28;20179;-72
2023/04/13 12:55:40;;;;;;;0.93;0.55;;;10.40;87.90;;;;;;5034191;28;20174;-72
2023/04/13 12:58:05;;;;;;;3.92;1.98;;;10.10;89.10;;;;;;5034079;28;20194;-74